sensor_id;sensor_type;location;lat;lon;timestamp;P1;durP1;ratioP1;P2;durP2;ratioP2
41629;SDS011;27322;49.488;8.480;2022-10-16T00:01:13;4.78;;;2.00;;
41629;SDS011;27322;49.488;8.480;2022-10-16T00:03:41;2.75;;;1.70;;
41629;SDS011;27322;49.488;8.480;2022-10-16T00:06:08;3.58;;;1.95;;
41629;SDS011;27322;49.488;8.480;2022-10-16T00:08:35;4.20;;;2.20;;
41629;SDS011;27322;49.488;8.480;2022-10-16T00:13:29;5.28;;;2.50;;
41629;SDS011;27322;49.488;8.480;2022-10-16T00:15:55;4.82;;;2.40;;
41629;SDS011;27322;49.488;8.480;2022-10-16T00:18:22;4.57;;;2.05;;
41629;SDS011;27322;49.488;8.480;2022-10-16T00:20:48;3.75;;;1.90;;
41629;SDS011;27322;49.488;8.480;2022-10-16T00:23:14;5.75;;;2.00;;
41629;SDS011;27322;49.488;8.480;2022-10-16T00:25:40;5.20;;;1.80;;
41629;SDS011;27322;49.488;8.480;2022-10-16T00:28:05;5.18;;;2.22;;
41629;SDS011;27322;49.488;8.480;2022-10-16T00:30:31;4.38;;;2.00;;
41629;SDS011;27322;49.488;8.480;2022-10-16T00:32:56;4.57;;;2.20;;
41629;SDS011;27322;49.488;8.480;2022-10-16T00:35:22;5.03;;;1.88;;
41629;SDS011;27322;49.488;8.480;2022-10-16T00:37:48;3.17;;;1.92;;
41629;SDS011;27322;49.488;8.480;2022-10-16T00:40:13;3.08;;;1.73;;
41629;SDS011;27322;49.488;8.480;2022-10-16T00:42:39;3.47;;;1.85;;
41629;SDS011;27322;49.488;8.480;2022-10-16T00:45:05;4.47;;;1.80;;
41629;SDS011;27322;49.488;8.480;2022-10-16T00:47:38;4.25;;;2.00;;
41629;SDS011;27322;49.488;8.480;2022-10-16T00:52:51;5.50;;;1.77;;
41629;SDS011;27322;49.488;8.480;2022-10-16T00:55:18;3.72;;;2.05;;
41629;SDS011;27322;49.488;8.480;2022-10-16T00:57:44;3.75;;;1.90;;
41629;SDS011;27322;49.488;8.480;2022-10-16T01:00:13;3.10;;;1.90;;
41629;SDS011;27322;49.488;8.480;2022-10-16T01:02:41;4.07;;;2.13;;
41629;SDS011;27322;49.488;8.480;2022-10-16T01:05:07;5.30;;;1.90;;
41629;SDS011;27322;49.488;8.480;2022-10-16T01:07:41;3.50;;;1.85;;
41629;SDS011;27322;49.488;8.480;2022-10-16T01:15:41;3.17;;;1.92;;
41629;SDS011;27322;49.488;8.480;2022-10-16T01:20:44;4.57;;;2.30;;
41629;SDS011;27322;49.488;8.480;2022-10-16T01:31:11;5.28;;;2.05;;
41629;SDS011;27322;49.488;8.480;2022-10-16T01:33:42;3.17;;;1.90;;
41629;SDS011;27322;49.488;8.480;2022-10-16T01:36:31;4.22;;;2.08;;
41629;SDS011;27322;49.488;8.480;2022-10-16T01:39:02;3.50;;;1.88;;
41629;SDS011;27322;49.488;8.480;2022-10-16T01:41:33;3.42;;;1.73;;
41629;SDS011;27322;49.488;8.480;2022-10-16T01:44:22;4.15;;;2.08;;
41629;SDS011;27322;49.488;8.480;2022-10-16T01:46:52;4.47;;;1.67;;
41629;SDS011;27322;49.488;8.480;2022-10-16T01:49:19;4.70;;;1.90;;
41629;SDS011;27322;49.488;8.480;2022-10-16T01:51:48;2.88;;;1.90;;
41629;SDS011;27322;49.488;8.480;2022-10-16T01:54:18;3.78;;;1.98;;
41629;SDS011;27322;49.488;8.480;2022-10-16T01:56:48;3.67;;;1.80;;
41629;SDS011;27322;49.488;8.480;2022-10-16T01:59:16;4.65;;;1.80;;
41629;SDS011;27322;49.488;8.480;2022-10-16T02:01:45;3.85;;;1.60;;
41629;SDS011;27322;49.488;8.480;2022-10-16T02:04:24;4.10;;;2.30;;
41629;SDS011;27322;49.488;8.480;2022-10-16T02:06:55;3.92;;;2.17;;
41629;SDS011;27322;49.488;8.480;2022-10-16T02:09:21;3.28;;;2.08;;
41629;SDS011;27322;49.488;8.480;2022-10-16T02:11:47;4.32;;;2.00;;
41629;SDS011;27322;49.488;8.480;2022-10-16T02:14:15;3.83;;;1.90;;
41629;SDS011;27322;49.488;8.480;2022-10-16T02:16:42;3.92;;;1.90;;
41629;SDS011;27322;49.488;8.480;2022-10-16T02:19:09;4.45;;;1.83;;
41629;SDS011;27322;49.488;8.480;2022-10-16T02:29:44;3.95;;;1.63;;
41629;SDS011;27322;49.488;8.480;2022-10-16T02:32:19;4.55;;;1.50;;
41629;SDS011;27322;49.488;8.480;2022-10-16T02:34:48;3.30;;;1.70;;
41629;SDS011;27322;49.488;8.480;2022-10-16T02:37:16;4.45;;;1.90;;
41629;SDS011;27322;49.488;8.480;2022-10-16T02:39:42;3.17;;;1.83;;
41629;SDS011;27322;49.488;8.480;2022-10-16T02:42:12;3.22;;;1.70;;
41629;SDS011;27322;49.488;8.480;2022-10-16T02:44:39;4.50;;;1.88;;
41629;SDS011;27322;49.488;8.480;2022-10-16T02:47:04;3.90;;;1.65;;
41629;SDS011;27322;49.488;8.480;2022-10-16T02:49:30;3.05;;;1.83;;
41629;SDS011;27322;49.488;8.480;2022-10-16T02:51:56;4.07;;;1.80;;
41629;SDS011;27322;49.488;8.480;2022-10-16T02:54:21;3.58;;;1.67;;
41629;SDS011;27322;49.488;8.480;2022-10-16T02:56:47;3.53;;;1.65;;
41629;SDS011;27322;49.488;8.480;2022-10-16T02:59:12;2.97;;;1.70;;
41629;SDS011;27322;49.488;8.480;2022-10-16T03:01:38;3.20;;;1.80;;
41629;SDS011;27322;49.488;8.480;2022-10-16T03:04:03;3.42;;;1.70;;
41629;SDS011;27322;49.488;8.480;2022-10-16T03:06:29;3.45;;;1.73;;
41629;SDS011;27322;49.488;8.480;2022-10-16T03:08:55;3.45;;;1.85;;
41629;SDS011;27322;49.488;8.480;2022-10-16T03:11:20;4.18;;;1.77;;
41629;SDS011;27322;49.488;8.480;2022-10-16T03:13:46;2.97;;;1.70;;
41629;SDS011;27322;49.488;8.480;2022-10-16T03:16:11;3.85;;;2.00;;
41629;SDS011;27322;49.488;8.480;2022-10-16T03:18:37;3.33;;;1.80;;
41629;SDS011;27322;49.488;8.480;2022-10-16T03:21:02;4.13;;;1.90;;
41629;SDS011;27322;49.488;8.480;2022-10-16T03:23:28;3.75;;;1.73;;
41629;SDS011;27322;49.488;8.480;2022-10-16T03:25:54;3.95;;;2.00;;
41629;SDS011;27322;49.488;8.480;2022-10-16T03:28:19;2.75;;;1.85;;
41629;SDS011;27322;49.488;8.480;2022-10-16T03:30:45;3.17;;;1.90;;
41629;SDS011;27322;49.488;8.480;2022-10-16T03:33:10;3.47;;;1.95;;
41629;SDS011;27322;49.488;8.480;2022-10-16T03:35:36;4.10;;;1.98;;
41629;SDS011;27322;49.488;8.480;2022-10-16T03:38:02;5.28;;;1.90;;
41629;SDS011;27322;49.488;8.480;2022-10-16T03:40:27;4.80;;;2.00;;
41629;SDS011;27322;49.488;8.480;2022-10-16T03:42:53;3.25;;;1.85;;
41629;SDS011;27322;49.488;8.480;2022-10-16T03:45:22;3.72;;;2.10;;
41629;SDS011;27322;49.488;8.480;2022-10-16T03:47:48;3.90;;;2.00;;
41629;SDS011;27322;49.488;8.480;2022-10-16T03:50:14;4.35;;;2.05;;
41629;SDS011;27322;49.488;8.480;2022-10-16T03:52:40;4.38;;;1.90;;
41629;SDS011;27322;49.488;8.480;2022-10-16T03:55:05;3.60;;;2.10;;
41629;SDS011;27322;49.488;8.480;2022-10-16T03:57:31;4.00;;;2.35;;
41629;SDS011;27322;49.488;8.480;2022-10-16T03:59:57;3.95;;;2.20;;
41629;SDS011;27322;49.488;8.480;2022-10-16T04:02:22;3.42;;;2.05;;
41629;SDS011;27322;49.488;8.480;2022-10-16T04:04:48;3.67;;;1.90;;
41629;SDS011;27322;49.488;8.480;2022-10-16T04:07:14;4.15;;;2.10;;
41629;SDS011;27322;49.488;8.480;2022-10-16T04:09:39;3.22;;;2.10;;
41629;SDS011;27322;49.488;8.480;2022-10-16T04:12:05;3.22;;;2.03;;
41629;SDS011;27322;49.488;8.480;2022-10-16T04:14:30;3.80;;;1.90;;
41629;SDS011;27322;49.488;8.480;2022-10-16T04:16:56;3.25;;;2.10;;
41629;SDS011;27322;49.488;8.480;2022-10-16T04:19:22;4.20;;;2.25;;
41629;SDS011;27322;49.488;8.480;2022-10-16T04:21:47;4.82;;;2.10;;
41629;SDS011;27322;49.488;8.480;2022-10-16T04:24:13;3.85;;;2.03;;
41629;SDS011;27322;49.488;8.480;2022-10-16T04:26:38;5.07;;;2.53;;
41629;SDS011;27322;49.488;8.480;2022-10-16T04:29:04;3.72;;;1.90;;
41629;SDS011;27322;49.488;8.480;2022-10-16T04:31:31;3.75;;;1.95;;
41629;SDS011;27322;49.488;8.480;2022-10-16T04:33:56;4.20;;;2.08;;
41629;SDS011;27322;49.488;8.480;2022-10-16T04:36:22;2.97;;;1.77;;
41629;SDS011;27322;49.488;8.480;2022-10-16T04:38:47;5.18;;;1.90;;
41629;SDS011;27322;49.488;8.480;2022-10-16T04:41:13;3.15;;;2.08;;
41629;SDS011;27322;49.488;8.480;2022-10-16T04:43:38;5.90;;;2.70;;
41629;SDS011;27322;49.488;8.480;2022-10-16T04:46:04;5.30;;;2.90;;
41629;SDS011;27322;49.488;8.480;2022-10-16T04:48:30;7.43;;;2.88;;
41629;SDS011;27322;49.488;8.480;2022-10-16T04:50:56;5.78;;;2.90;;
41629;SDS011;27322;49.488;8.480;2022-10-16T04:53:22;5.45;;;2.70;;
41629;SDS011;27322;49.488;8.480;2022-10-16T04:55:48;3.85;;;2.55;;
41629;SDS011;27322;49.488;8.480;2022-10-16T04:58:14;5.10;;;2.53;;
41629;SDS011;27322;49.488;8.480;2022-10-16T05:00:40;5.25;;;2.80;;
41629;SDS011;27322;49.488;8.480;2022-10-16T05:03:05;6.60;;;3.40;;
41629;SDS011;27322;49.488;8.480;2022-10-16T05:05:33;5.35;;;3.35;;
41629;SDS011;27322;49.488;8.480;2022-10-16T05:08:00;7.03;;;3.70;;
41629;SDS011;27322;49.488;8.480;2022-10-16T05:10:25;6.82;;;3.80;;
41629;SDS011;27322;49.488;8.480;2022-10-16T05:12:51;7.38;;;3.40;;
41629;SDS011;27322;49.488;8.480;2022-10-16T05:15:17;4.88;;;3.03;;
41629;SDS011;27322;49.488;8.480;2022-10-16T05:17:43;5.50;;;3.28;;
41629;SDS011;27322;49.488;8.480;2022-10-16T05:20:09;8.57;;;3.00;;
41629;SDS011;27322;49.488;8.480;2022-10-16T05:22:34;7.68;;;3.30;;
41629;SDS011;27322;49.488;8.480;2022-10-16T05:25:00;6.13;;;3.00;;
41629;SDS011;27322;49.488;8.480;2022-10-16T05:27:26;4.63;;;2.80;;
41629;SDS011;27322;49.488;8.480;2022-10-16T05:29:51;5.70;;;2.60;;
41629;SDS011;27322;49.488;8.480;2022-10-16T05:32:17;5.35;;;2.40;;
41629;SDS011;27322;49.488;8.480;2022-10-16T05:34:44;5.63;;;2.47;;
41629;SDS011;27322;49.488;8.480;2022-10-16T05:37:10;4.25;;;2.47;;
41629;SDS011;27322;49.488;8.480;2022-10-16T05:39:36;4.72;;;2.67;;
41629;SDS011;27322;49.488;8.480;2022-10-16T05:42:02;6.70;;;2.28;;
41629;SDS011;27322;49.488;8.480;2022-10-16T05:44:29;4.40;;;2.47;;
41629;SDS011;27322;49.488;8.480;2022-10-16T05:46:55;3.70;;;2.10;;
41629;SDS011;27322;49.488;8.480;2022-10-16T05:49:20;3.50;;;2.08;;
41629;SDS011;27322;49.488;8.480;2022-10-16T05:51:46;4.45;;;2.15;;
41629;SDS011;27322;49.488;8.480;2022-10-16T05:54:11;4.35;;;1.85;;
41629;SDS011;27322;49.488;8.480;2022-10-16T05:56:37;4.65;;;1.80;;
41629;SDS011;27322;49.488;8.480;2022-10-16T05:59:03;4.90;;;2.00;;
41629;SDS011;27322;49.488;8.480;2022-10-16T06:01:29;3.33;;;1.50;;
41629;SDS011;27322;49.488;8.480;2022-10-16T06:03:56;3.28;;;1.80;;
41629;SDS011;27322;49.488;8.480;2022-10-16T06:06:22;3.28;;;1.55;;
41629;SDS011;27322;49.488;8.480;2022-10-16T06:08:50;5.03;;;1.80;;
41629;SDS011;27322;49.488;8.480;2022-10-16T06:11:18;2.90;;;1.42;;
41629;SDS011;27322;49.488;8.480;2022-10-16T06:13:53;2.63;;;1.60;;
41629;SDS011;27322;49.488;8.480;2022-10-16T06:16:21;3.60;;;1.83;;
41629;SDS011;27322;49.488;8.480;2022-10-16T06:18:47;3.53;;;1.63;;
41629;SDS011;27322;49.488;8.480;2022-10-16T06:21:22;6.03;;;1.50;;
41629;SDS011;27322;49.488;8.480;2022-10-16T06:23:52;3.17;;;1.80;;
41629;SDS011;27322;49.488;8.480;2022-10-16T06:26:19;2.90;;;1.35;;
41629;SDS011;27322;49.488;8.480;2022-10-16T06:28:46;4.00;;;1.70;;
41629;SDS011;27322;49.488;8.480;2022-10-16T06:31:12;3.55;;;1.75;;
41629;SDS011;27322;49.488;8.480;2022-10-16T06:33:39;3.65;;;1.80;;
41629;SDS011;27322;49.488;8.480;2022-10-16T06:36:05;3.35;;;1.35;;
41629;SDS011;27322;49.488;8.480;2022-10-16T06:38:33;4.57;;;1.90;;
41629;SDS011;27322;49.488;8.480;2022-10-16T06:40:59;3.05;;;1.70;;
41629;SDS011;27322;49.488;8.480;2022-10-16T06:43:25;3.38;;;1.67;;
41629;SDS011;27322;49.488;8.480;2022-10-16T06:45:54;4.10;;;1.70;;
41629;SDS011;27322;49.488;8.480;2022-10-16T06:48:20;3.25;;;1.70;;
41629;SDS011;27322;49.488;8.480;2022-10-16T06:53:26;4.28;;;2.03;;
41629;SDS011;27322;49.488;8.480;2022-10-16T06:55:54;3.78;;;1.70;;
41629;SDS011;27322;49.488;8.480;2022-10-16T06:58:19;3.08;;;1.70;;
41629;SDS011;27322;49.488;8.480;2022-10-16T07:00:45;6.13;;;2.00;;
41629;SDS011;27322;49.488;8.480;2022-10-16T07:03:11;4.57;;;1.88;;
41629;SDS011;27322;49.488;8.480;2022-10-16T07:05:41;3.53;;;1.70;;
41629;SDS011;27322;49.488;8.480;2022-10-16T07:08:07;3.95;;;1.90;;
41629;SDS011;27322;49.488;8.480;2022-10-16T07:10:33;4.88;;;2.13;;
41629;SDS011;27322;49.488;8.480;2022-10-16T07:12:59;3.30;;;1.70;;
41629;SDS011;27322;49.488;8.480;2022-10-16T07:15:25;5.07;;;1.73;;
41629;SDS011;27322;49.488;8.480;2022-10-16T07:17:51;6.35;;;1.50;;
41629;SDS011;27322;49.488;8.480;2022-10-16T07:20:17;5.85;;;2.00;;
41629;SDS011;27322;49.488;8.480;2022-10-16T07:22:42;3.90;;;1.65;;
41629;SDS011;27322;49.488;8.480;2022-10-16T07:25:08;3.05;;;1.38;;
41629;SDS011;27322;49.488;8.480;2022-10-16T07:27:34;4.05;;;2.03;;
41629;SDS011;27322;49.488;8.480;2022-10-16T07:30:00;4.97;;;2.22;;
41629;SDS011;27322;49.488;8.480;2022-10-16T07:32:25;3.42;;;1.63;;
41629;SDS011;27322;49.488;8.480;2022-10-16T07:34:52;3.72;;;1.48;;
41629;SDS011;27322;49.488;8.480;2022-10-16T07:37:18;3.47;;;1.50;;
41629;SDS011;27322;49.488;8.480;2022-10-16T07:39:44;4.75;;;1.70;;
41629;SDS011;27322;49.488;8.480;2022-10-16T07:42:09;2.72;;;1.42;;
41629;SDS011;27322;49.488;8.480;2022-10-16T07:44:35;4.63;;;1.58;;
41629;SDS011;27322;49.488;8.480;2022-10-16T07:47:00;4.90;;;2.15;;
41629;SDS011;27322;49.488;8.480;2022-10-16T07:49:26;5.07;;;3.17;;
41629;SDS011;27322;49.488;8.480;2022-10-16T07:51:52;6.90;;;2.60;;
41629;SDS011;27322;49.488;8.480;2022-10-16T07:54:17;4.53;;;1.80;;
41629;SDS011;27322;49.488;8.480;2022-10-16T07:56:43;4.28;;;1.63;;
41629;SDS011;27322;49.488;8.480;2022-10-16T07:59:09;6.13;;;2.00;;
41629;SDS011;27322;49.488;8.480;2022-10-16T08:01:34;3.40;;;1.58;;
41629;SDS011;27322;49.488;8.480;2022-10-16T08:04:00;3.80;;;1.50;;
41629;SDS011;27322;49.488;8.480;2022-10-16T08:06:25;6.20;;;1.77;;
41629;SDS011;27322;49.488;8.480;2022-10-16T08:08:51;2.75;;;1.30;;
41629;SDS011;27322;49.488;8.480;2022-10-16T08:11:17;6.00;;;1.50;;
41629;SDS011;27322;49.488;8.480;2022-10-16T08:13:42;3.63;;;1.60;;
41629;SDS011;27322;49.488;8.480;2022-10-16T08:16:08;3.40;;;1.52;;
41629;SDS011;27322;49.488;8.480;2022-10-16T08:18:38;4.32;;;1.63;;
41629;SDS011;27322;49.488;8.480;2022-10-16T08:21:05;3.92;;;1.60;;
41629;SDS011;27322;49.488;8.480;2022-10-16T08:23:32;6.90;;;3.40;;
41629;SDS011;27322;49.488;8.480;2022-10-16T08:26:02;9.10;;;4.45;;
41629;SDS011;27322;49.488;8.480;2022-10-16T08:28:30;4.38;;;2.20;;
41629;SDS011;27322;49.488;8.480;2022-10-16T08:30:55;5.80;;;2.50;;
41629;SDS011;27322;49.488;8.480;2022-10-16T08:33:22;6.00;;;2.20;;
41629;SDS011;27322;49.488;8.480;2022-10-16T08:35:53;4.70;;;2.72;;
41629;SDS011;27322;49.488;8.480;2022-10-16T08:38:19;6.40;;;2.08;;
41629;SDS011;27322;49.488;8.480;2022-10-16T08:40:45;5.97;;;2.40;;
41629;SDS011;27322;49.488;8.480;2022-10-16T08:45:58;7.18;;;2.50;;
41629;SDS011;27322;49.488;8.480;2022-10-16T08:48:48;4.60;;;2.25;;
41629;SDS011;27322;49.488;8.480;2022-10-16T08:51:20;5.50;;;2.35;;
41629;SDS011;27322;49.488;8.480;2022-10-16T08:53:58;6.95;;;2.40;;
41629;SDS011;27322;49.488;8.480;2022-10-16T08:56:27;8.93;;;3.17;;
41629;SDS011;27322;49.488;8.480;2022-10-16T08:58:53;9.10;;;3.47;;
41629;SDS011;27322;49.488;8.480;2022-10-16T09:01:20;7.93;;;4.70;;
41629;SDS011;27322;49.488;8.480;2022-10-16T09:06:34;7.50;;;4.43;;
41629;SDS011;27322;49.488;8.480;2022-10-16T09:18:06;8.15;;;4.20;;
41629;SDS011;27322;49.488;8.480;2022-10-16T09:23:12;5.68;;;2.67;;
41629;SDS011;27322;49.488;8.480;2022-10-16T09:28:20;5.90;;;2.78;;
41629;SDS011;27322;49.488;8.480;2022-10-16T09:30:46;6.82;;;2.80;;
41629;SDS011;27322;49.488;8.480;2022-10-16T09:33:16;7.03;;;3.00;;
41629;SDS011;27322;49.488;8.480;2022-10-16T09:35:44;4.75;;;2.80;;
41629;SDS011;27322;49.488;8.480;2022-10-16T09:38:27;6.45;;;3.10;;
41629;SDS011;27322;49.488;8.480;2022-10-16T09:40:55;5.82;;;2.85;;
41629;SDS011;27322;49.488;8.480;2022-10-16T09:43:23;5.97;;;2.92;;
41629;SDS011;27322;49.488;8.480;2022-10-16T09:48:54;5.53;;;2.75;;
41629;SDS011;27322;49.488;8.480;2022-10-16T09:51:35;5.95;;;2.80;;
41629;SDS011;27322;49.488;8.480;2022-10-16T09:56:31;5.85;;;2.80;;
41629;SDS011;27322;49.488;8.480;2022-10-16T09:59:00;6.32;;;2.53;;
41629;SDS011;27322;49.488;8.480;2022-10-16T10:01:38;4.63;;;2.40;;
41629;SDS011;27322;49.488;8.480;2022-10-16T10:04:15;4.43;;;2.53;;
41629;SDS011;27322;49.488;8.480;2022-10-16T10:09:21;4.63;;;2.20;;
41629;SDS011;27322;49.488;8.480;2022-10-16T10:11:51;4.60;;;2.30;;
41629;SDS011;27322;49.488;8.480;2022-10-16T10:19:47;4.18;;;2.42;;
41629;SDS011;27322;49.488;8.480;2022-10-16T11:03:35;4.68;;;2.80;;
41629;SDS011;27322;49.488;8.480;2022-10-16T11:11:28;4.07;;;2.08;;
41629;SDS011;27322;49.488;8.480;2022-10-16T11:14:26;4.13;;;2.10;;
41629;SDS011;27322;49.488;8.480;2022-10-16T11:17:42;4.03;;;2.13;;
41629;SDS011;27322;49.488;8.480;2022-10-16T11:19:54;3.28;;;1.50;;
41629;SDS011;27322;49.488;8.480;2022-10-16T11:30:32;3.58;;;1.65;;
41629;SDS011;27322;49.488;8.480;2022-10-16T11:33:27;4.45;;;1.85;;
41629;SDS011;27322;49.488;8.480;2022-10-16T11:41:32;4.07;;;1.60;;
41629;SDS011;27322;49.488;8.480;2022-10-16T11:49:44;3.00;;;1.42;;
41629;SDS011;27322;49.488;8.480;2022-10-16T11:55:04;3.47;;;1.95;;
41629;SDS011;27322;49.488;8.480;2022-10-16T11:57:39;3.00;;;1.80;;
41629;SDS011;27322;49.488;8.480;2022-10-16T12:02:57;3.75;;;2.05;;
41629;SDS011;27322;49.488;8.480;2022-10-16T12:08:15;3.78;;;1.83;;
41629;SDS011;27322;49.488;8.480;2022-10-16T12:10:43;3.30;;;1.75;;
41629;SDS011;27322;49.488;8.480;2022-10-16T12:13:30;3.35;;;2.20;;
41629;SDS011;27322;49.488;8.480;2022-10-16T12:16:06;8.20;;;2.20;;
41629;SDS011;27322;49.488;8.480;2022-10-16T12:18:38;2.95;;;1.92;;
41629;SDS011;27322;49.488;8.480;2022-10-16T12:21:06;3.45;;;1.80;;
41629;SDS011;27322;49.488;8.480;2022-10-16T12:23:33;4.18;;;1.52;;
41629;SDS011;27322;49.488;8.480;2022-10-16T12:26:02;3.67;;;1.83;;
41629;SDS011;27322;49.488;8.480;2022-10-16T12:28:30;4.70;;;2.30;;
41629;SDS011;27322;49.488;8.480;2022-10-16T12:30:58;3.50;;;2.00;;
41629;SDS011;27322;49.488;8.480;2022-10-16T12:33:27;6.72;;;1.90;;
41629;SDS011;27322;49.488;8.480;2022-10-16T12:35:54;3.55;;;1.83;;
41629;SDS011;27322;49.488;8.480;2022-10-16T12:38:25;3.20;;;1.95;;
41629;SDS011;27322;49.488;8.480;2022-10-16T12:41:10;3.90;;;1.70;;
41629;SDS011;27322;49.488;8.480;2022-10-16T12:43:39;6.03;;;1.80;;
41629;SDS011;27322;49.488;8.480;2022-10-16T12:48:39;3.83;;;2.00;;
41629;SDS011;27322;49.488;8.480;2022-10-16T12:51:10;4.25;;;1.88;;
41629;SDS011;27322;49.488;8.480;2022-10-16T12:54:04;3.90;;;1.88;;
41629;SDS011;27322;49.488;8.480;2022-10-16T12:59:14;3.25;;;1.90;;
41629;SDS011;27322;49.488;8.480;2022-10-16T13:07:43;4.35;;;2.35;;
41629;SDS011;27322;49.488;8.480;2022-10-16T13:10:26;4.20;;;2.28;;
41629;SDS011;27322;49.488;8.480;2022-10-16T13:18:27;4.60;;;2.70;;
41629;SDS011;27322;49.488;8.480;2022-10-16T13:27:02;4.40;;;2.95;;
41629;SDS011;27322;49.488;8.480;2022-10-16T13:29:39;4.22;;;2.50;;
41629;SDS011;27322;49.488;8.480;2022-10-16T13:32:09;4.55;;;2.78;;
41629;SDS011;27322;49.488;8.480;2022-10-16T13:34:47;4.72;;;2.45;;
41629;SDS011;27322;49.488;8.480;2022-10-16T13:37:32;6.53;;;2.63;;
41629;SDS011;27322;49.488;8.480;2022-10-16T13:42:49;3.80;;;2.63;;
41629;SDS011;27322;49.488;8.480;2022-10-16T13:45:18;5.43;;;2.78;;
41629;SDS011;27322;49.488;8.480;2022-10-16T13:47:48;4.00;;;2.50;;
41629;SDS011;27322;49.488;8.480;2022-10-16T13:50:14;6.35;;;3.30;;
41629;SDS011;27322;49.488;8.480;2022-10-16T13:52:42;4.70;;;2.90;;
41629;SDS011;27322;49.488;8.480;2022-10-16T13:57:38;4.28;;;2.72;;
41629;SDS011;27322;49.488;8.480;2022-10-16T14:00:16;6.00;;;2.28;;
41629;SDS011;27322;49.488;8.480;2022-10-16T14:02:51;4.57;;;2.42;;
41629;SDS011;27322;49.488;8.480;2022-10-16T14:05:22;3.63;;;2.20;;
41629;SDS011;27322;49.488;8.480;2022-10-16T14:07:49;5.25;;;2.30;;
41629;SDS011;27322;49.488;8.480;2022-10-16T14:10:21;4.63;;;2.72;;
41629;SDS011;27322;49.488;8.480;2022-10-16T14:13:00;5.60;;;2.55;;
41629;SDS011;27322;49.488;8.480;2022-10-16T14:15:26;5.35;;;2.50;;
41629;SDS011;27322;49.488;8.480;2022-10-16T14:17:52;5.07;;;2.65;;
41629;SDS011;27322;49.488;8.480;2022-10-16T14:20:20;4.18;;;2.53;;
41629;SDS011;27322;49.488;8.480;2022-10-16T14:22:57;4.10;;;2.42;;
41629;SDS011;27322;49.488;8.480;2022-10-16T14:25:26;4.80;;;2.75;;
41629;SDS011;27322;49.488;8.480;2022-10-16T14:30:26;3.78;;;2.33;;
41629;SDS011;27322;49.488;8.480;2022-10-16T14:32:56;3.55;;;2.30;;
41629;SDS011;27322;49.488;8.480;2022-10-16T14:38:16;4.90;;;2.67;;
41629;SDS011;27322;49.488;8.480;2022-10-16T14:40:46;4.10;;;2.42;;
41629;SDS011;27322;49.488;8.480;2022-10-16T14:43:56;4.43;;;2.60;;
41629;SDS011;27322;49.488;8.480;2022-10-16T14:46:06;4.22;;;2.80;;
41629;SDS011;27322;49.488;8.480;2022-10-16T14:48:43;21.40;;;2.80;;
41629;SDS011;27322;49.488;8.480;2022-10-16T14:51:19;4.50;;;2.47;;
41629;SDS011;27322;49.488;8.480;2022-10-16T14:53:45;4.25;;;2.63;;
41629;SDS011;27322;49.488;8.480;2022-10-16T14:56:16;5.15;;;3.30;;
41629;SDS011;27322;49.488;8.480;2022-10-16T14:58:49;6.65;;;3.03;;
41629;SDS011;27322;49.488;8.480;2022-10-16T15:01:16;5.10;;;3.20;;
41629;SDS011;27322;49.488;8.480;2022-10-16T15:03:43;5.95;;;3.47;;
41629;SDS011;27322;49.488;8.480;2022-10-16T15:06:12;6.07;;;3.05;;
41629;SDS011;27322;49.488;8.480;2022-10-16T15:08:39;4.47;;;2.80;;
41629;SDS011;27322;49.488;8.480;2022-10-16T15:11:04;5.95;;;2.60;;
41629;SDS011;27322;49.488;8.480;2022-10-16T15:13:35;4.25;;;2.70;;
41629;SDS011;27322;49.488;8.480;2022-10-16T15:16:00;4.38;;;2.40;;
41629;SDS011;27322;49.488;8.480;2022-10-16T15:18:26;6.20;;;2.58;;
41629;SDS011;27322;49.488;8.480;2022-10-16T15:20:51;4.80;;;2.40;;
41629;SDS011;27322;49.488;8.480;2022-10-16T15:23:18;7.75;;;2.53;;
41629;SDS011;27322;49.488;8.480;2022-10-16T15:28:14;6.28;;;2.10;;
41629;SDS011;27322;49.488;8.480;2022-10-16T15:30:43;4.80;;;2.05;;
41629;SDS011;27322;49.488;8.480;2022-10-16T15:33:15;4.30;;;2.10;;
41629;SDS011;27322;49.488;8.480;2022-10-16T15:35:45;3.63;;;2.00;;
41629;SDS011;27322;49.488;8.480;2022-10-16T15:38:12;4.88;;;2.10;;
41629;SDS011;27322;49.488;8.480;2022-10-16T15:40:38;3.22;;;1.83;;
41629;SDS011;27322;49.488;8.480;2022-10-16T15:43:05;3.30;;;1.80;;
41629;SDS011;27322;49.488;8.480;2022-10-16T15:45:30;5.72;;;2.53;;
41629;SDS011;27322;49.488;8.480;2022-10-16T15:47:56;5.28;;;2.08;;
41629;SDS011;27322;49.488;8.480;2022-10-16T15:50:22;3.20;;;2.08;;
41629;SDS011;27322;49.488;8.480;2022-10-16T15:52:47;4.10;;;2.42;;
41629;SDS011;27322;49.488;8.480;2022-10-16T15:55:14;4.43;;;2.50;;
41629;SDS011;27322;49.488;8.480;2022-10-16T15:57:40;5.35;;;2.83;;
41629;SDS011;27322;49.488;8.480;2022-10-16T16:00:08;6.45;;;3.00;;
41629;SDS011;27322;49.488;8.480;2022-10-16T16:02:36;5.15;;;2.67;;
41629;SDS011;27322;49.488;8.480;2022-10-16T16:05:02;6.82;;;2.72;;
41629;SDS011;27322;49.488;8.480;2022-10-16T16:07:28;6.18;;;3.25;;
41629;SDS011;27322;49.488;8.480;2022-10-16T16:09:57;7.82;;;3.08;;
41629;SDS011;27322;49.488;8.480;2022-10-16T16:12:22;4.80;;;2.60;;
41629;SDS011;27322;49.488;8.480;2022-10-16T16:14:48;5.18;;;2.83;;
41629;SDS011;27322;49.488;8.480;2022-10-16T16:17:14;5.22;;;2.65;;
41629;SDS011;27322;49.488;8.480;2022-10-16T16:19:39;7.40;;;3.10;;
41629;SDS011;27322;49.488;8.480;2022-10-16T16:22:05;5.18;;;2.83;;
41629;SDS011;27322;49.488;8.480;2022-10-16T16:24:30;4.97;;;2.88;;
41629;SDS011;27322;49.488;8.480;2022-10-16T16:26:56;5.40;;;3.20;;
41629;SDS011;27322;49.488;8.480;2022-10-16T16:29:22;9.75;;;3.25;;
41629;SDS011;27322;49.488;8.480;2022-10-16T16:31:47;6.72;;;3.25;;
41629;SDS011;27322;49.488;8.480;2022-10-16T16:34:13;5.40;;;3.20;;
41629;SDS011;27322;49.488;8.480;2022-10-16T16:36:39;5.38;;;3.05;;
41629;SDS011;27322;49.488;8.480;2022-10-16T16:39:05;5.47;;;2.83;;
41629;SDS011;27322;49.488;8.480;2022-10-16T16:41:32;5.05;;;3.00;;
41629;SDS011;27322;49.488;8.480;2022-10-16T16:44:05;5.15;;;3.20;;
41629;SDS011;27322;49.488;8.480;2022-10-16T16:46:33;5.57;;;2.85;;
41629;SDS011;27322;49.488;8.480;2022-10-16T16:49:00;11.45;;;3.45;;
41629;SDS011;27322;49.488;8.480;2022-10-16T16:51:26;4.50;;;2.70;;
41629;SDS011;27322;49.488;8.480;2022-10-16T16:53:52;4.70;;;2.72;;
41629;SDS011;27322;49.488;8.480;2022-10-16T16:56:19;4.90;;;2.88;;
41629;SDS011;27322;49.488;8.480;2022-10-16T16:58:46;4.22;;;2.85;;
41629;SDS011;27322;49.488;8.480;2022-10-16T17:01:12;4.88;;;2.92;;
41629;SDS011;27322;49.488;8.480;2022-10-16T17:03:41;6.10;;;2.75;;
41629;SDS011;27322;49.488;8.480;2022-10-16T17:06:11;6.70;;;2.90;;
41629;SDS011;27322;49.488;8.480;2022-10-16T17:08:39;6.13;;;3.10;;
41629;SDS011;27322;49.488;8.480;2022-10-16T17:11:05;5.43;;;2.90;;
41629;SDS011;27322;49.488;8.480;2022-10-16T17:13:36;5.20;;;2.58;;
41629;SDS011;27322;49.488;8.480;2022-10-16T17:16:02;4.97;;;2.50;;
41629;SDS011;27322;49.488;8.480;2022-10-16T17:18:29;4.65;;;2.92;;
41629;SDS011;27322;49.488;8.480;2022-10-16T17:20:58;6.18;;;2.90;;
41629;SDS011;27322;49.488;8.480;2022-10-16T17:23:24;4.30;;;2.90;;
41629;SDS011;27322;49.488;8.480;2022-10-16T17:25:50;7.22;;;3.05;;
41629;SDS011;27322;49.488;8.480;2022-10-16T17:28:16;7.22;;;3.30;;
41629;SDS011;27322;49.488;8.480;2022-10-16T17:30:42;4.97;;;2.50;;
41629;SDS011;27322;49.488;8.480;2022-10-16T17:33:09;4.53;;;2.67;;
41629;SDS011;27322;49.488;8.480;2022-10-16T17:35:39;4.78;;;2.83;;
41629;SDS011;27322;49.488;8.480;2022-10-16T17:40:36;5.43;;;3.10;;
41629;SDS011;27322;49.488;8.480;2022-10-16T17:43:02;4.68;;;2.80;;
41629;SDS011;27322;49.488;8.480;2022-10-16T17:45:28;5.28;;;2.90;;
41629;SDS011;27322;49.488;8.480;2022-10-16T17:47:54;4.95;;;3.17;;
41629;SDS011;27322;49.488;8.480;2022-10-16T17:50:20;4.95;;;2.90;;
41629;SDS011;27322;49.488;8.480;2022-10-16T17:52:45;4.65;;;2.80;;